createdAt,value
2022-08-14T00:01:24.005Z,17.78
2022-08-14T00:03:57.551Z,17.72
2022-08-14T00:06:32.300Z,17.58
2022-08-14T00:09:06.173Z,17.65
2022-08-14T00:11:40.247Z,17.58
2022-08-14T00:14:17.500Z,17.59
2022-08-14T00:16:55.779Z,17.61
2022-08-14T00:19:29.384Z,17.58
2022-08-14T00:22:06.575Z,17.58
2022-08-14T00:24:39.740Z,17.51
2022-08-14T00:27:13.259Z,17.45
2022-08-14T00:29:50.310Z,17.45
2022-08-14T00:32:52.007Z,17.39
2022-08-14T00:35:16.672Z,17.31
2022-08-14T00:37:51.930Z,17.16
2022-08-14T00:40:33.066Z,17.25
2022-08-14T00:43:07.919Z,17.29
2022-08-14T00:45:41.449Z,17.28
2022-08-14T00:48:14.552Z,17.26
2022-08-14T00:51:10.669Z,17.28
2022-08-14T00:53:50.312Z,17.23
2022-08-14T00:56:26.641Z,17.15
2022-08-14T00:59:04.789Z,17.13
2022-08-14T01:01:38.869Z,17.10
2022-08-14T01:04:37.744Z,17.07
2022-08-14T01:07:09.036Z,17.05
2022-08-14T01:09:43.758Z,17.05
2022-08-14T01:12:27.320Z,17.03
2022-08-14T01:15:05.387Z,16.87
2022-08-14T01:18:00.376Z,16.83
2022-08-14T01:20:51.729Z,16.79
2022-08-14T01:23:26.386Z,16.80
2022-08-14T01:26:34.349Z,16.86
2022-08-14T01:29:11.004Z,16.86
2022-08-14T01:32:04.492Z,16.90
2022-08-14T01:35:19.618Z,16.92
2022-08-14T01:37:36.724Z,16.87
2022-08-14T01:40:19.965Z,16.82
2022-08-14T01:42:58.638Z,16.86
2022-08-14T01:45:40.144Z,16.80
2022-08-14T01:48:14.592Z,16.80
2022-08-14T01:50:47.689Z,16.79
2022-08-14T01:53:22.713Z,16.81
2022-08-14T01:55:58.918Z,16.77
2022-08-14T01:58:32.073Z,16.81
2022-08-14T02:01:06.767Z,16.84
2022-08-14T02:03:43.091Z,16.80
2022-08-14T02:06:32.909Z,16.80
2022-08-14T02:09:19.070Z,16.73
2022-08-14T02:11:56.349Z,16.71
2022-08-14T02:14:32.169Z,16.69
2022-08-14T02:17:12.248Z,16.66
2022-08-14T02:19:45.383Z,16.67
2022-08-14T02:22:28.698Z,16.68
2022-08-14T02:25:07.595Z,16.56
2022-08-14T02:28:22.349Z,16.47
2022-08-14T02:30:40.042Z,16.41
2022-08-14T02:33:13.350Z,16.35
2022-08-14T02:35:49.911Z,16.35
2022-08-14T02:38:29.961Z,16.24
2022-08-14T02:41:08.979Z,16.23
2022-08-14T02:43:46.375Z,16.30
2022-08-14T02:46:26.959Z,16.28
2022-08-14T02:49:06.624Z,16.30
2022-08-14T02:51:41.285Z,16.15
2022-08-14T02:54:19.757Z,16.13
2022-08-14T02:57:16.604Z,16.12
2022-08-14T02:59:50.043Z,16.06
2022-08-14T03:02:33.493Z,15.96
2022-08-14T03:05:17.431Z,15.86
2022-08-14T03:07:52.817Z,15.82
2022-08-14T03:10:32.302Z,15.82
2022-08-14T03:13:06.705Z,15.81
2022-08-14T03:15:58.135Z,15.80
2022-08-14T03:18:32.819Z,15.79
2022-08-14T03:21:08.677Z,15.74
2022-08-14T03:23:43.439Z,15.71
2022-08-14T03:26:30.402Z,15.66
2022-08-14T03:29:05.266Z,15.66
2022-08-14T03:31:51.267Z,15.65
2022-08-14T03:34:52.663Z,15.63
2022-08-14T03:37:37.370Z,15.67
2022-08-14T03:40:17.652Z,15.62
2022-08-14T03:42:51.798Z,15.56
2022-08-14T03:45:35.347Z,15.47
2022-08-14T03:48:30.257Z,15.49
2022-08-14T03:51:04.861Z,15.43
2022-08-14T03:53:44.093Z,15.38
2022-08-14T03:56:21.453Z,15.40
2022-08-14T03:58:59.196Z,15.42
2022-08-14T04:01:39.270Z,15.42
2022-08-14T04:04:16.072Z,15.37
2022-08-14T04:06:51.435Z,15.32
2022-08-14T04:09:26.717Z,15.33
2022-08-14T04:12:00.201Z,15.38
2022-08-14T04:14:37.137Z,15.41
2022-08-14T04:17:11.249Z,15.39
2022-08-14T04:19:47.472Z,15.36
2022-08-14T04:22:22.190Z,15.31
2022-08-14T04:24:55.661Z,15.37
2022-08-14T04:27:29.399Z,15.39
2022-08-14T04:30:05.567Z,15.38
2022-08-14T04:33:02.434Z,15.43
2022-08-14T04:35:55.336Z,15.42
2022-08-14T04:38:44.142Z,15.40
2022-08-14T04:41:38.126Z,15.35
2022-08-14T04:44:36.154Z,15.26
2022-08-14T04:47:27.096Z,15.27
2022-08-14T04:50:05.002Z,15.33
2022-08-14T04:52:39.618Z,15.28
2022-08-14T04:55:12.722Z,15.21
2022-08-14T04:57:47.326Z,15.21
2022-08-14T05:00:22.162Z,15.22
2022-08-14T05:02:58.028Z,15.21
2022-08-14T05:05:32.750Z,15.06
2022-08-14T05:08:32.182Z,15.06
2022-08-14T05:11:11.865Z,15.10
2022-08-14T05:14:33.700Z,15.23
2022-08-14T05:16:39.867Z,15.43
2022-08-14T05:19:18.973Z,15.50
2022-08-14T05:22:18.862Z,15.56
2022-08-14T05:24:53.729Z,15.85
2022-08-14T05:27:30.928Z,16.09
2022-08-14T05:30:08.505Z,16.53
2022-08-14T05:32:42.419Z,17.30
2022-08-14T05:35:21.759Z,18.10
2022-08-14T05:37:55.181Z,18.79
2022-08-14T05:40:30.040Z,19.35
2022-08-14T05:43:06.833Z,19.82
2022-08-14T05:45:40.526Z,20.31
2022-08-14T05:48:32.945Z,20.67
2022-08-14T05:51:07.171Z,21.07
2022-08-14T05:53:42.466Z,21.35
2022-08-14T05:56:17.201Z,21.72
2022-08-14T05:58:50.305Z,22.14
2022-08-14T06:01:23.549Z,22.07
2022-08-14T06:03:57.023Z,22.50
2022-08-14T06:06:32.661Z,22.77
2022-08-14T06:09:10.535Z,23.02
2022-08-14T06:11:45.071Z,23.01
2022-08-14T06:14:24.076Z,23.50
2022-08-14T06:16:57.412Z,23.99
2022-08-14T06:19:30.705Z,24.25
2022-08-14T06:22:04.195Z,24.26
2022-08-14T06:24:37.348Z,24.62
2022-08-14T06:27:18.507Z,24.77
2022-08-14T06:29:55.735Z,25.08
2022-08-14T06:32:38.156Z,25.58
2022-08-14T06:35:14.716Z,25.56
2022-08-14T06:37:51.456Z,26.34
2022-08-14T06:40:28.679Z,26.44
2022-08-14T06:43:05.624Z,26.71
2022-08-14T06:45:42.430Z,26.77
2022-08-14T06:48:17.628Z,27.14
2022-08-14T06:50:52.258Z,27.31
2022-08-14T06:53:27.514Z,27.18
2022-08-14T06:56:02.377Z,27.66
2022-08-14T06:58:37.016Z,27.35
2022-08-14T07:01:28.035Z,27.09
2022-08-14T07:04:31.022Z,27.87
2022-08-14T07:07:06.839Z,28.43
2022-08-14T07:09:44.235Z,28.53
2022-08-14T07:12:52.111Z,28.52
2022-08-14T07:15:18.361Z,28.34
2022-08-14T07:17:54.047Z,28.45
2022-08-14T07:20:30.626Z,28.03
2022-08-14T07:23:11.073Z,28.22
2022-08-14T07:25:56.706Z,28.13
2022-08-14T07:28:34.693Z,28.53
2022-08-14T07:31:12.341Z,28.81
2022-08-14T07:33:50.795Z,28.95
2022-08-14T07:36:27.528Z,29.35
2022-08-14T07:39:12.440Z,29.93
2022-08-14T07:41:46.606Z,30.06
2022-08-14T07:44:29.060Z,29.83
2022-08-14T07:47:07.804Z,30.06
2022-08-14T07:49:43.504Z,30.41
2022-08-14T07:52:22.255Z,30.80
2022-08-14T07:55:04.944Z,30.22
2022-08-14T07:57:38.349Z,29.98
2022-08-14T08:00:31.136Z,30.32
2022-08-14T08:03:10.863Z,30.40
2022-08-14T08:05:45.279Z,30.71
2022-08-14T08:08:27.211Z,30.75
2022-08-14T08:11:03.732Z,30.72
2022-08-14T08:13:49.074Z,31.21
2022-08-14T08:16:30.053Z,31.31
2022-08-14T08:19:12.821Z,31.50
2022-08-14T08:21:47.684Z,31.56
2022-08-14T08:24:21.042Z,31.57
2022-08-14T08:26:54.234Z,31.84
2022-08-14T08:29:28.544Z,31.80
2022-08-14T08:32:06.173Z,31.95
2022-08-14T08:34:49.311Z,31.98
2022-08-14T08:37:22.726Z,31.78
2022-08-14T08:40:01.987Z,31.51
2022-08-14T08:42:38.757Z,31.77
2022-08-14T08:45:17.637Z,31.50
2022-08-14T08:47:52.953Z,31.42
2022-08-14T08:53:06.817Z,31.38
2022-08-14T08:55:42.451Z,31.77
2022-08-14T08:58:24.934Z,31.55
2022-08-14T09:01:00.618Z,31.76
2022-08-14T09:03:37.880Z,32.07
2022-08-14T09:07:01.644Z,31.91
2022-08-14T09:09:22.827Z,31.51
2022-08-14T09:11:58.495Z,31.25
2022-08-14T09:14:36.458Z,31.22
2022-08-14T09:17:13.154Z,31.40
2022-08-14T09:19:47.936Z,31.40
2022-08-14T09:22:35.884Z,31.75
2022-08-14T09:25:09.843Z,31.60
2022-08-14T09:27:43.862Z,31.64
2022-08-14T09:30:32.121Z,31.47
2022-08-14T09:33:33.089Z,31.63
2022-08-14T09:36:28.945Z,31.86
2022-08-14T09:39:23.001Z,31.63
2022-08-14T09:42:36.781Z,31.58
2022-08-14T09:45:20.915Z,31.96
2022-08-14T09:47:57.260Z,31.87
2022-08-14T09:50:33.151Z,31.80
2022-08-14T09:53:18.315Z,31.60
2022-08-14T09:56:02.319Z,31.81
2022-08-14T09:58:41.535Z,31.72
2022-08-14T10:01:17.257Z,31.78
2022-08-14T10:03:55.611Z,31.78
2022-08-14T10:06:31.012Z,31.58
2022-08-14T10:09:11.993Z,31.61
2022-08-14T10:11:59.736Z,31.09
2022-08-14T10:14:37.154Z,31.53
2022-08-14T10:17:10.480Z,31.60
2022-08-14T10:19:49.878Z,31.69
2022-08-14T10:23:21.820Z,31.62
2022-08-14T10:25:23.129Z,31.64
2022-08-14T10:28:00.317Z,31.68
2022-08-14T10:30:37.705Z,31.59
2022-08-14T10:33:11.292Z,31.16
2022-08-14T10:35:48.062Z,31.15
2022-08-14T10:38:33.710Z,31.14
2022-08-14T10:41:15.274Z,31.11
2022-08-14T10:44:20.867Z,31.25
2022-08-14T10:47:39.478Z,31.05
2022-08-14T10:50:03.549Z,31.25
2022-08-14T10:52:38.203Z,31.22
2022-08-14T10:55:19.432Z,30.88
2022-08-14T10:57:57.535Z,30.73
2022-08-14T11:00:35.624Z,30.80
2022-08-14T11:03:19.853Z,30.82
2022-08-14T11:06:18.729Z,31.02
2022-08-14T11:08:52.201Z,30.85
2022-08-14T11:11:28.634Z,30.66
2022-08-14T11:14:10.642Z,30.69
2022-08-14T11:16:49.098Z,30.87
2022-08-14T11:19:27.404Z,30.63
2022-08-14T11:22:04.217Z,30.74
2022-08-14T11:24:54.965Z,30.66
2022-08-14T11:27:33.240Z,30.55
2022-08-14T11:30:50.981Z,30.70
2022-08-14T11:33:07.607Z,30.48
2022-08-14T11:35:47.190Z,30.59
2022-08-14T11:38:25.600Z,30.55
2022-08-14T11:41:00.291Z,30.66
2022-08-14T11:43:40.598Z,30.28
2022-08-14T11:46:17.833Z,30.49
2022-08-14T11:49:05.631Z,30.40
2022-08-14T11:51:52.972Z,30.45
2022-08-14T11:54:33.902Z,30.67
2022-08-14T11:57:15.943Z,30.63
2022-08-14T12:00:03.959Z,30.58
2022-08-14T12:03:02.548Z,30.80
2022-08-14T12:05:46.370Z,30.58
2022-08-14T12:08:24.416Z,30.70
2022-08-14T12:10:58.911Z,30.80
2022-08-14T12:13:34.790Z,30.88
2022-08-14T12:16:20.441Z,30.74
2022-08-14T12:18:59.662Z,31.01
2022-08-14T12:21:34.302Z,31.12
2022-08-14T12:24:36.084Z,31.26
2022-08-14T12:27:03.648Z,31.36
2022-08-14T12:29:36.754Z,31.34
2022-08-14T12:32:13.775Z,31.33
2022-08-14T12:34:55.154Z,31.30
2022-08-14T12:37:32.752Z,31.11
2022-08-14T12:40:19.627Z,31.20
2022-08-14T12:42:56.618Z,31.14
2022-08-14T12:45:36.735Z,31.05
2022-08-14T12:48:21.452Z,30.78
2022-08-14T12:51:03.576Z,30.85
2022-08-14T12:53:39.083Z,30.87
2022-08-14T12:56:21.968Z,30.91
2022-08-14T12:59:06.421Z,31.08
2022-08-14T13:01:59.247Z,31.22
2022-08-14T13:04:35.458Z,31.31
2022-08-14T13:07:08.919Z,31.28
2022-08-14T13:09:44.972Z,31.37
2022-08-14T13:12:35.214Z,31.37
2022-08-14T13:15:17.837Z,31.18
2022-08-14T13:17:56.443Z,31.29
2022-08-14T13:20:33.770Z,31.11
2022-08-14T13:23:09.439Z,31.30
2022-08-14T13:25:55.832Z,31.31
2022-08-14T13:28:34.000Z,31.37
2022-08-14T13:31:11.503Z,31.46
2022-08-14T13:33:45.521Z,31.37
2022-08-14T13:36:24.071Z,31.33
2022-08-14T13:39:13.104Z,31.41
2022-08-14T13:41:48.702Z,31.42
2022-08-14T13:44:29.463Z,31.46
2022-08-14T13:47:06.956Z,31.49
2022-08-14T13:49:57.624Z,31.53
2022-08-14T13:52:52.653Z,31.61
2022-08-14T13:55:29.361Z,31.53
2022-08-14T13:58:05.296Z,31.35
2022-08-14T14:00:52.970Z,31.44
2022-08-14T14:03:30.247Z,31.46
2022-08-14T14:06:05.940Z,31.54
2022-08-14T14:08:48.090Z,31.59
2022-08-14T14:11:23.996Z,31.59
2022-08-14T14:14:00.492Z,31.52
2022-08-14T14:16:34.074Z,31.33
2022-08-14T14:19:10.181Z,31.24
2022-08-14T14:21:44.823Z,31.49
2022-08-14T14:24:20.053Z,31.58
2022-08-14T14:26:53.846Z,31.54
2022-08-14T14:29:33.562Z,31.38
2022-08-14T14:32:21.286Z,31.45
2022-08-14T14:34:55.719Z,31.66
2022-08-14T14:37:31.460Z,31.50
2022-08-14T14:40:52.817Z,31.40
2022-08-14T14:43:04.135Z,31.40
2022-08-14T14:45:45.980Z,31.35
2022-08-14T14:48:20.195Z,31.41
2022-08-14T14:50:53.918Z,31.37
2022-08-14T14:53:28.096Z,31.52
2022-08-14T14:56:51.278Z,31.57
2022-08-14T14:58:59.110Z,31.70
2022-08-14T15:01:36.426Z,31.63
2022-08-14T15:04:20.674Z,31.59
2022-08-14T15:06:54.405Z,31.53
2022-08-14T15:09:27.858Z,31.37
2022-08-14T15:12:02.640Z,31.58
2022-08-14T15:14:55.785Z,31.66
2022-08-14T15:17:40.849Z,31.63
2022-08-14T15:20:29.897Z,31.60
2022-08-14T15:23:11.632Z,31.49
2022-08-14T15:25:52.297Z,31.68
2022-08-14T15:28:26.982Z,31.78
2022-08-14T15:31:00.279Z,31.67
2022-08-14T15:34:13.476Z,31.63
2022-08-14T15:36:46.049Z,31.62
2022-08-14T15:39:19.229Z,31.36
2022-08-14T15:41:53.129Z,31.20
2022-08-14T15:44:36.461Z,31.07
2022-08-14T15:47:09.924Z,31.04
2022-08-14T15:49:44.398Z,31.03
2022-08-14T15:52:32.996Z,30.96
2022-08-14T15:55:12.993Z,30.91
2022-08-14T15:58:01.836Z,31.11
2022-08-14T16:00:55.737Z,31.16
2022-08-14T16:03:35.756Z,31.01
2022-08-14T16:06:18.055Z,31.10
2022-08-14T16:08:58.698Z,31.02
2022-08-14T16:11:33.489Z,31.10
2022-08-14T16:14:09.994Z,31.38
2022-08-14T16:16:51.750Z,31.39
2022-08-14T16:19:39.860Z,31.28
2022-08-14T16:22:59.241Z,31.28
2022-08-14T16:25:34.443Z,31.13
2022-08-14T16:28:08.656Z,31.11
2022-08-14T16:30:45.052Z,31.02
2022-08-14T16:33:27.919Z,30.95
2022-08-14T16:36:30.744Z,31.01
2022-08-14T16:39:08.328Z,31.29
2022-08-14T16:41:51.189Z,31.33
2022-08-14T16:44:33.745Z,31.17
2022-08-14T16:47:12.752Z,31.12
2022-08-14T16:50:04.140Z,31.14
2022-08-14T16:52:44.399Z,31.02
2022-08-14T16:55:19.739Z,30.90
2022-08-14T16:57:58.532Z,30.78
2022-08-14T17:00:43.586Z,30.69
2022-08-14T17:03:17.640Z,30.61
2022-08-14T17:05:51.034Z,30.49
2022-08-14T17:08:41.689Z,30.42
2022-08-14T17:11:18.706Z,30.35
2022-08-14T17:14:00.213Z,30.25
2022-08-14T17:16:37.838Z,30.13
2022-08-14T17:19:14.143Z,30.00
2022-08-14T17:21:51.483Z,29.88
2022-08-14T17:24:57.230Z,29.78
2022-08-14T17:27:23.470Z,29.68
2022-08-14T17:29:57.681Z,29.56
2022-08-14T17:32:55.641Z,29.45
2022-08-14T17:38:39.581Z,29.24
2022-08-14T17:44:34.235Z,28.97
2022-08-14T17:47:20.347Z,28.86
2022-08-14T17:49:53.857Z,28.74
2022-08-14T17:52:34.807Z,28.62
2022-08-14T17:56:00.441Z,28.50
2022-08-14T17:58:20.341Z,28.38
2022-08-14T18:00:57.813Z,28.27
2022-08-14T18:03:50.195Z,28.13
2022-08-14T18:06:39.903Z,28.03
2022-08-14T18:09:26.061Z,27.89
2022-08-14T18:12:03.953Z,27.78
2022-08-14T18:14:48.854Z,27.65
2022-08-14T18:17:27.948Z,27.53
2022-08-14T18:21:24.810Z,27.38
2022-08-14T18:22:57.572Z,27.23
2022-08-14T18:25:35.554Z,27.06
2022-08-14T18:28:18.060Z,26.90
2022-08-14T18:31:43.655Z,26.77
2022-08-14T18:34:31.899Z,26.60
2022-08-14T18:37:16.941Z,26.51
2022-08-14T18:40:02.512Z,26.40
2022-08-14T18:42:46.838Z,26.19
2022-08-14T18:45:28.590Z,26.11
2022-08-14T18:48:28.461Z,25.95
2022-08-14T18:51:10.626Z,25.82
2022-08-14T18:54:01.845Z,25.72
2022-08-14T18:56:58.940Z,25.59
2022-08-14T18:59:37.369Z,25.47
2022-08-14T19:02:45.837Z,25.33
2022-08-14T19:05:59.546Z,25.19
2022-08-14T19:08:38.498Z,25.11
2022-08-14T19:11:45.064Z,25.04
2022-08-14T19:14:47.514Z,24.92
2022-08-14T19:18:14.004Z,24.79
2022-08-14T19:20:52.876Z,24.72
2022-08-14T19:23:40.619Z,24.59
2022-08-14T19:26:36.956Z,24.46
2022-08-14T19:29:23.684Z,24.31
2022-08-14T19:31:58.979Z,24.21
2022-08-14T19:34:52.251Z,24.16
2022-08-14T19:37:52.041Z,24.00
2022-08-14T19:40:38.491Z,23.86
2022-08-14T19:43:55.546Z,23.82
2022-08-14T19:46:38.496Z,23.81
2022-08-14T19:49:21.322Z,23.65
2022-08-14T19:51:56.623Z,23.52
2022-08-14T19:54:31.607Z,23.42
2022-08-14T19:57:18.883Z,23.36
2022-08-14T20:00:04.529Z,23.38
2022-08-14T20:02:38.031Z,23.35
2022-08-14T20:05:12.454Z,23.33
2022-08-14T20:07:59.327Z,23.20
2022-08-14T20:11:11.044Z,23.20
2022-08-14T20:13:38.611Z,23.13
2022-08-14T20:16:21.170Z,23.14
2022-08-14T20:19:23.220Z,23.15
2022-08-14T20:22:04.666Z,23.16
2022-08-14T20:24:54.383Z,23.12
2022-08-14T20:27:39.608Z,23.04
2022-08-14T20:30:33.942Z,22.97
2022-08-14T20:33:11.816Z,22.99
2022-08-14T20:35:51.553Z,22.99
2022-08-14T20:38:33.547Z,22.97
2022-08-14T20:41:12.444Z,22.92
2022-08-14T20:44:06.650Z,22.82
2022-08-14T20:46:42.303Z,22.71
2022-08-14T20:49:18.528Z,22.69
2022-08-14T20:52:00.193Z,22.73
2022-08-14T20:54:50.174Z,22.73
2022-08-14T20:57:23.945Z,22.71
2022-08-14T20:59:57.722Z,22.69
2022-08-14T21:02:38.707Z,22.73
2022-08-14T21:05:34.032Z,22.86
2022-08-14T21:08:22.591Z,22.81
2022-08-14T21:11:02.705Z,22.69
2022-08-14T21:14:20.963Z,22.64
2022-08-14T21:16:33.510Z,22.53
2022-08-14T21:19:09.363Z,22.55
2022-08-14T21:21:55.008Z,22.52
2022-08-14T21:24:47.048Z,22.56
2022-08-14T21:27:23.004Z,22.52
2022-08-14T21:29:56.812Z,22.46
2022-08-14T21:32:50.580Z,22.48
2022-08-14T21:35:31.833Z,22.54
2022-08-14T21:38:17.883Z,22.51
2022-08-14T21:40:55.514Z,22.47
2022-08-14T21:43:32.312Z,22.37
2022-08-14T21:46:05.965Z,22.34
2022-08-14T21:48:39.115Z,22.34
2022-08-14T21:51:53.866Z,22.36
2022-08-14T21:54:30.398Z,22.33
2022-08-14T21:57:13.761Z,22.31
2022-08-14T21:59:49.378Z,22.29
2022-08-14T22:02:32.489Z,22.30
2022-08-14T22:05:07.325Z,22.26
2022-08-14T22:07:41.800Z,22.24
2022-08-14T22:10:22.939Z,22.27
2022-08-14T22:13:01.160Z,22.29
2022-08-14T22:15:35.521Z,22.24
2022-08-14T22:18:20.426Z,22.23
2022-08-14T22:20:56.477Z,22.21
2022-08-14T22:23:31.363Z,22.18
2022-08-14T22:26:05.917Z,22.21
2022-08-14T22:28:39.080Z,22.27
2022-08-14T22:31:23.111Z,22.24
2022-08-14T22:33:57.878Z,22.22
2022-08-14T22:36:49.888Z,22.21
2022-08-14T22:40:14.528Z,22.17
2022-08-14T22:42:23.261Z,22.16
2022-08-14T22:44:57.009Z,22.14
2022-08-14T22:47:40.528Z,22.13
2022-08-14T22:50:31.703Z,22.08
2022-08-14T22:53:07.006Z,22.07
2022-08-14T22:55:44.738Z,22.05
2022-08-14T22:58:30.349Z,22.05
2022-08-14T23:01:11.972Z,22.08
2022-08-14T23:03:46.015Z,22.07
2022-08-14T23:07:02.053Z,22.00
2022-08-14T23:09:35.926Z,21.99
2022-08-14T23:12:28.068Z,21.95
2022-08-14T23:15:02.319Z,21.95
2022-08-14T23:17:40.485Z,21.97
2022-08-14T23:20:19.787Z,21.94
2022-08-14T23:22:55.687Z,21.96
2022-08-14T23:25:57.511Z,21.94
2022-08-14T23:28:33.281Z,21.93
2022-08-14T23:31:33.469Z,21.77
2022-08-14T23:34:20.617Z,21.86
2022-08-14T23:36:59.216Z,21.80
2022-08-14T23:39:39.165Z,21.82
2022-08-14T23:42:13.377Z,21.84
2022-08-14T23:44:52.612Z,21.77
2022-08-14T23:47:26.627Z,21.74
2022-08-14T23:50:04.202Z,21.70
2022-08-14T23:52:50.500Z,21.69
2022-08-14T23:55:35.235Z,21.70
2022-08-14T23:58:08.459Z,21.67
